Pagrindinis puslapis
METAR-TAF:

METAR-TAF

Oro uostai :

Montichiari

Breša, Italija

platuma: 45-24-02N, ilguma: 010-18-59E, Aukštis: 104 m

Dabartinis oras

Ataskaita buvo paskelbta 36 minutes, ne 13:20 UTC
Vėjas 5 kt iš Pietvakarių, svyruoja nuo Pietų ir Vakarų/Šiaurės Vakarų
Temperatūra 20°C
Drėgmė 32%
Slėgis 1031 hPa
Matomumas: 9000 m

METAR: LIPO 251320Z AUTO 23005KT 190V290 9000 NCD 20/03 Q1031

Laikas: 14:56 (13:56 UTC)

Prognozė

Ataskaita buvo paskelbta 2 valandos ir 56 minutes, ne 11:00 UTC
Prognozė galioja nuo 25 metu 12 UTC su 26 metu 12 UTC
Vėjas 4 kt nuo kintamojo kryptimis
Matomumas 10 km arba daugiau
nėra debesų žemiau 1500 m ir nėra kamuolinių lietaus debesų

TAF: LIPO 251100Z 2512/2612 VRB04KT CAVOK

Orai ataskaitas ir orų prognozės (METAR, TAF).

turimą stotys yra geltonos ir raudonos taškus žemėlapyje.

Perkelti pele per norėdami pamatyti stoties vardą.

Tada spustelėkite, norėdami matyti oro stebėjimo ir prognozės.

Norėdami pakeisti žemėlapį: spustelėkite ant žalios mygtukų su juodo kryžiaus žemyn,; žalią mygtuką su brūkšneliu, jei norite nutolinti; arba žalių rodyklių gretimoms žemėlapius.


METAR-TAF: